PBD6855 UUEE-ULMM
Flight info
| Callsign | PBD6855 |
|---|---|
| Flight time | 2h 4m |
| Altitude | 36000 |
| Route | RILPO3E RILPO DCT GIMDA/K0828F350 N156 UPEMA T825 ADLIN/K0845F360 T747 MOVIT DCT PILAN T693 ASGOR ASGOR2L |
| Aircraft | B738/M-SDE2E3FGHIRWXY/LB1 |
Departure
| Time | 2026-05-06 17:55 |
|---|---|
| Airport | Sheremetyevo International Airport (UUEE) |
Arrival
| Time | 2026-05-06 19:59 |
|---|---|
| Airport | Emperor Nicholas II Murmansk Airport (ULMM) |
| Time | Latitude | Longitude | Altitude | Speed | Heading |
|---|---|---|---|---|---|
| 2026-05-06 17:11 | 55.96380 | 37.39870 | 641 ft | 0 kts | 344° |
| 2026-05-06 17:51 | 55.96443 | 37.39852 | 641 ft | 13 kts | 6° |
| 2026-05-06 17:51 | 55.96457 | 37.39856 | 641 ft | 0 kts | 8° |
| 2026-05-06 17:51 | 55.96477 | 37.39895 | 640 ft | 8 kts | 48° |
| 2026-05-06 17:51 | 55.96566 | 37.39899 | 636 ft | 18 kts | 344° |
| 2026-05-06 17:52 | 55.96663 | 37.39828 | 632 ft | 15 kts | 304° |
| 2026-05-06 17:52 | 55.96652 | 37.39660 | 632 ft | 13 kts | 255° |
| 2026-05-06 17:52 | 55.96626 | 37.39480 | 630 ft | 16 kts | 255° |
| 2026-05-06 17:52 | 55.96596 | 37.39279 | 627 ft | 17 kts | 255° |
| 2026-05-06 17:53 | 55.96564 | 37.39063 | 623 ft | 18 kts | 253° |
| 2026-05-06 17:53 | 55.96542 | 37.38880 | 618 ft | 13 kts | 271° |
| 2026-05-06 17:53 | 55.96593 | 37.38737 | 615 ft | 15 kts | 334° |
| 2026-05-06 17:53 | 55.96699 | 37.38706 | 613 ft | 15 kts | 27° |
| 2026-05-06 17:54 | 55.96751 | 37.38855 | 614 ft | 16 kts | 77° |
| 2026-05-06 17:54 | 55.96787 | 37.39112 | 618 ft | 28 kts | 71° |
| 2026-05-06 17:54 | 55.96859 | 37.39651 | 621 ft | 63 kts | 70° |
| 2026-05-06 17:54 | 55.97043 | 37.40838 | 615 ft | 127 kts | 73° |
| 2026-05-06 17:55 | 55.97299 | 37.42502 | 605 ft | 158 kts | 73° |
| 2026-05-06 17:55 | 55.97605 | 37.44599 | 956 ft | 178 kts | 72° |
| 2026-05-06 17:55 | 55.97891 | 37.46606 | 1770 ft | 168 kts | 65° |
| 2026-05-06 17:55 | 55.98217 | 37.48640 | 2346 ft | 181 kts | 68° |
| 2026-05-06 17:56 | 55.98565 | 37.50833 | 3046 ft | 186 kts | 70° |
| 2026-05-06 17:56 | 55.98911 | 37.53091 | 3433 ft | 197 kts | 71° |
| 2026-05-06 17:56 | 55.99276 | 37.55476 | 3895 ft | 203 kts | 71° |
| 2026-05-06 17:56 | 55.99655 | 37.57979 | 4223 ft | 217 kts | 72° |
| 2026-05-06 17:57 | 56.00057 | 37.60660 | 4542 ft | 232 kts | 71° |
| 2026-05-06 17:57 | 56.00489 | 37.63533 | 4872 ft | 248 kts | 71° |
| 2026-05-06 17:57 | 56.01023 | 37.66554 | 5132 ft | 264 kts | 63° |
| 2026-05-06 17:57 | 56.02081 | 37.69220 | 5557 ft | 268 kts | 37° |
| 2026-05-06 17:58 | 56.03645 | 37.71140 | 5900 ft | 279 kts | 26° |
| 2026-05-06 17:58 | 56.05356 | 37.72839 | 6388 ft | 287 kts | 25° |
| 2026-05-06 17:58 | 56.07100 | 37.74626 | 6922 ft | 293 kts | 28° |
| 2026-05-06 17:58 | 56.08741 | 37.76816 | 7001 ft | 297 kts | 38° |
| 2026-05-06 17:59 | 56.10212 | 37.79394 | 7036 ft | 299 kts | 43° |
| 2026-05-06 17:59 | 56.11656 | 37.82170 | 7500 ft | 307 kts | 44° |
| 2026-05-06 17:59 | 56.13116 | 37.84919 | 7936 ft | 303 kts | 40° |
| 2026-05-06 17:59 | 56.14770 | 37.87167 | 8005 ft | 294 kts | 19° |
| 2026-05-06 18:00 | 56.16686 | 37.88027 | 8020 ft | 280 kts | 359° |
| 2026-05-06 18:00 | 56.18631 | 37.88146 | 8073 ft | 286 kts | 354° |
| 2026-05-06 18:00 | 56.20619 | 37.88190 | 8861 ft | 285 kts | 356° |
| 2026-05-06 18:00 | 56.22579 | 37.88348 | 9653 ft | 285 kts | 357° |
| 2026-05-06 18:01 | 56.24565 | 37.88597 | 10328 ft | 289 kts | 358° |
| 2026-05-06 18:01 | 56.26570 | 37.88894 | 11001 ft | 293 kts | 359° |
| 2026-05-06 18:01 | 56.28607 | 37.89204 | 11631 ft | 299 kts | 359° |
| 2026-05-06 18:01 | 56.30719 | 37.89494 | 12000 ft | 314 kts | 359° |
| 2026-05-06 18:02 | 56.32942 | 37.89776 | 12352 ft | 329 kts | 359° |
| 2026-05-06 18:02 | 56.35276 | 37.90069 | 12684 ft | 345 kts | 359° |
| 2026-05-06 18:02 | 56.37717 | 37.90380 | 13001 ft | 361 kts | 360° |
| 2026-05-06 18:02 | 56.40262 | 37.90711 | 13410 ft | 374 kts | 360° |
| 2026-05-06 18:03 | 56.42865 | 37.91064 | 14062 ft | 379 kts | 0° |
| 2026-05-06 18:03 | 56.45503 | 37.91430 | 14709 ft | 385 kts | 0° |
| 2026-05-06 18:03 | 56.48167 | 37.91802 | 15405 ft | 389 kts | 0° |
| 2026-05-06 18:03 | 56.50872 | 37.92177 | 16045 ft | 394 kts | 0° |
| 2026-05-06 18:04 | 56.53600 | 37.92553 | 16709 ft | 398 kts | 0° |
| 2026-05-06 18:04 | 56.56365 | 37.92931 | 17329 ft | 403 kts | 360° |
| 2026-05-06 18:04 | 56.59157 | 37.93313 | 17975 ft | 407 kts | 360° |
| 2026-05-06 18:04 | 56.61986 | 37.93699 | 18589 ft | 411 kts | 0° |
| 2026-05-06 18:05 | 56.64833 | 37.94180 | 19207 ft | 416 kts | 4° |
| 2026-05-06 18:05 | 56.67674 | 37.95271 | 19856 ft | 424 kts | 13° |
| 2026-05-06 18:05 | 56.70460 | 37.97070 | 20438 ft | 428 kts | 15° |
| 2026-05-06 18:05 | 56.73298 | 37.98404 | 21232 ft | 420 kts | 5° |
| 2026-05-06 18:06 | 56.76181 | 37.98861 | 21824 ft | 418 kts | 355° |
| 2026-05-06 18:06 | 56.79069 | 37.98609 | 22381 ft | 418 kts | 351° |
| 2026-05-06 18:06 | 56.81959 | 37.98163 | 22925 ft | 421 kts | 351° |
| 2026-05-06 18:06 | 56.84884 | 37.97832 | 23447 ft | 425 kts | 353° |
| 2026-05-06 18:07 | 56.87855 | 37.97719 | 23978 ft | 429 kts | 356° |
| 2026-05-06 18:07 | 56.90848 | 37.97817 | 24482 ft | 434 kts | 358° |
| 2026-05-06 18:07 | 56.93860 | 37.98076 | 25000 ft | 437 kts | 359° |
| 2026-05-06 18:07 | 56.96900 | 37.98444 | 25491 ft | 441 kts | 360° |
| 2026-05-06 18:08 | 56.99959 | 37.98880 | 25995 ft | 444 kts | 0° |
| 2026-05-06 18:08 | 57.03037 | 37.99350 | 26441 ft | 448 kts | 0° |
| 2026-05-06 18:08 | 57.06148 | 37.99844 | 26916 ft | 450 kts | 0° |
| 2026-05-06 18:08 | 57.09264 | 38.00345 | 27436 ft | 452 kts | 0° |
| 2026-05-06 18:09 | 57.12396 | 38.00849 | 27863 ft | 455 kts | 0° |
| 2026-05-06 18:09 | 57.15559 | 38.01358 | 28324 ft | 457 kts | 0° |
| 2026-05-06 18:09 | 57.18727 | 38.01866 | 28748 ft | 460 kts | 360° |
| 2026-05-06 18:09 | 57.21913 | 38.02376 | 29125 ft | 464 kts | 360° |
| 2026-05-06 18:10 | 57.25123 | 38.02889 | 29539 ft | 466 kts | 360° |
| 2026-05-06 18:10 | 57.28341 | 38.03404 | 30085 ft | 465 kts | 359° |
| 2026-05-06 18:10 | 57.31531 | 38.03919 | 30735 ft | 461 kts | 359° |
| 2026-05-06 18:10 | 57.34718 | 38.04434 | 31247 ft | 460 kts | 359° |
| 2026-05-06 18:11 | 57.37882 | 38.04946 | 31788 ft | 458 kts | 359° |
| 2026-05-06 18:11 | 57.41034 | 38.05455 | 32340 ft | 455 kts | 359° |
| 2026-05-06 18:11 | 57.44172 | 38.05961 | 32795 ft | 454 kts | 359° |
| 2026-05-06 18:11 | 57.47304 | 38.06464 | 33247 ft | 453 kts | 359° |
| 2026-05-06 18:12 | 57.50423 | 38.06966 | 33715 ft | 451 kts | 359° |
| 2026-05-06 18:12 | 57.53536 | 38.07471 | 34184 ft | 449 kts | 359° |
| 2026-05-06 18:12 | 57.56633 | 38.07974 | 34624 ft | 447 kts | 359° |
| 2026-05-06 18:12 | 57.59720 | 38.08475 | 35047 ft | 444 kts | 359° |
| 2026-05-06 18:13 | 57.62789 | 38.08971 | 35346 ft | 443 kts | 359° |
| 2026-05-06 18:13 | 57.65854 | 38.09466 | 35589 ft | 443 kts | 359° |
| 2026-05-06 18:13 | 57.68925 | 38.09961 | 35829 ft | 444 kts | 359° |
| 2026-05-06 18:13 | 57.72024 | 38.10462 | 35945 ft | 446 kts | 359° |
| 2026-05-06 18:14 | 57.78207 | 38.11463 | 35954 ft | 446 kts | 359° |
| 2026-05-06 18:14 | 57.84360 | 38.12475 | 35955 ft | 445 kts | 359° |
| 2026-05-06 18:15 | 57.90514 | 38.13487 | 35955 ft | 447 kts | 358° |
| 2026-05-06 18:15 | 57.96681 | 38.14505 | 35957 ft | 446 kts | 358° |
| 2026-05-06 18:16 | 58.02821 | 38.15524 | 35953 ft | 444 kts | 358° |
| 2026-05-06 18:16 | 58.08957 | 38.16546 | 35957 ft | 444 kts | 358° |
| 2026-05-06 18:17 | 58.15117 | 38.17573 | 35957 ft | 446 kts | 358° |
| 2026-05-06 18:17 | 58.21274 | 38.18607 | 35964 ft | 446 kts | 358° |
| 2026-05-06 18:18 | 58.27425 | 38.19644 | 35963 ft | 446 kts | 358° |
| 2026-05-06 18:18 | 58.33586 | 38.20686 | 35961 ft | 447 kts | 358° |
| 2026-05-06 18:19 | 58.39738 | 38.21731 | 35962 ft | 445 kts | 358° |
| 2026-05-06 18:19 | 58.45897 | 38.22778 | 35965 ft | 446 kts | 358° |
| 2026-05-06 18:20 | 58.52046 | 38.23830 | 35969 ft | 445 kts | 358° |
| 2026-05-06 18:20 | 58.58199 | 38.24886 | 35966 ft | 445 kts | 358° |
| 2026-05-06 18:21 | 58.64391 | 38.25931 | 35968 ft | 445 kts | 356° |
| 2026-05-06 18:21 | 58.70498 | 38.26037 | 35970 ft | 435 kts | 347° |
| 2026-05-06 18:22 | 58.76440 | 38.24226 | 35969 ft | 431 kts | 340° |
| 2026-05-06 18:22 | 58.82239 | 38.21733 | 35971 ft | 428 kts | 339° |
| 2026-05-06 18:23 | 58.88014 | 38.19144 | 35973 ft | 428 kts | 339° |
| 2026-05-06 18:23 | 58.93812 | 38.16592 | 35972 ft | 427 kts | 339° |
| 2026-05-06 18:24 | 58.99613 | 38.14077 | 35971 ft | 427 kts | 339° |
| 2026-05-06 18:24 | 59.05392 | 38.11591 | 35981 ft | 427 kts | 339° |
| 2026-05-06 18:25 | 59.11200 | 38.09083 | 35963 ft | 429 kts | 339° |
| 2026-05-06 18:25 | 59.16998 | 38.06582 | 35971 ft | 428 kts | 339° |
| 2026-05-06 18:26 | 59.22802 | 38.04091 | 35971 ft | 429 kts | 340° |
| 2026-05-06 18:26 | 59.28755 | 38.02514 | 35968 ft | 441 kts | 349° |
| 2026-05-06 18:27 | 59.34917 | 38.02943 | 35977 ft | 448 kts | 356° |
| 2026-05-06 18:27 | 59.41128 | 38.04168 | 35973 ft | 451 kts | 358° |
| 2026-05-06 18:28 | 59.47337 | 38.05514 | 35964 ft | 451 kts | 358° |
| 2026-05-06 18:28 | 59.53542 | 38.06825 | 35952 ft | 449 kts | 357° |
| 2026-05-06 18:29 | 59.59750 | 38.08087 | 35963 ft | 450 kts | 357° |
| 2026-05-06 18:29 | 59.65956 | 38.09319 | 35957 ft | 451 kts | 357° |
| 2026-05-06 18:30 | 59.72179 | 38.10544 | 35954 ft | 451 kts | 357° |
| 2026-05-06 18:30 | 59.78379 | 38.11771 | 35946 ft | 450 kts | 356° |
| 2026-05-06 18:31 | 59.84596 | 38.12996 | 35951 ft | 452 kts | 356° |
| 2026-05-06 18:31 | 59.90829 | 38.14232 | 35946 ft | 450 kts | 356° |
| 2026-05-06 18:32 | 59.97044 | 38.15469 | 35963 ft | 452 kts | 356° |
| 2026-05-06 18:32 | 60.03283 | 38.16712 | 35960 ft | 453 kts | 356° |
| 2026-05-06 18:33 | 60.09510 | 38.17968 | 35958 ft | 450 kts | 356° |
| 2026-05-06 18:33 | 60.15740 | 38.19220 | 35956 ft | 453 kts | 356° |
| 2026-05-06 18:34 | 60.21964 | 38.20481 | 35956 ft | 451 kts | 356° |
| 2026-05-06 18:34 | 60.28192 | 38.21742 | 35961 ft | 451 kts | 356° |
| 2026-05-06 18:35 | 60.34398 | 38.23001 | 35950 ft | 450 kts | 356° |
| 2026-05-06 18:35 | 60.40598 | 38.24258 | 35959 ft | 450 kts | 356° |
| 2026-05-06 18:36 | 60.46813 | 38.25522 | 35948 ft | 449 kts | 356° |
| 2026-05-06 18:36 | 60.53014 | 38.26789 | 35942 ft | 452 kts | 356° |
| 2026-05-06 18:37 | 60.59213 | 38.28068 | 35946 ft | 448 kts | 356° |
| 2026-05-06 18:37 | 60.65409 | 38.29341 | 35850 ft | 452 kts | 356° |
| 2026-05-06 18:38 | 60.68517 | 38.29983 | 36068 ft | 451 kts | 356° |
| 2026-05-06 18:38 | 60.71604 | 38.30628 | 35967 ft | 444 kts | 355° |
| 2026-05-06 18:38 | 60.77690 | 38.31910 | 35952 ft | 443 kts | 355° |
| 2026-05-06 18:39 | 60.83844 | 38.33176 | 35949 ft | 447 kts | 355° |
| 2026-05-06 18:40 | 60.93058 | 38.35109 | 35941 ft | 444 kts | 355° |
| 2026-05-06 18:40 | 60.99171 | 38.36399 | 35944 ft | 443 kts | 355° |
| 2026-05-06 18:41 | 61.05283 | 38.37687 | 35929 ft | 445 kts | 355° |
| 2026-05-06 18:41 | 61.11398 | 38.38987 | 35925 ft | 442 kts | 355° |
| 2026-05-06 18:42 | 61.17537 | 38.40285 | 35930 ft | 448 kts | 355° |
| 2026-05-06 18:42 | 61.23651 | 38.40948 | 35925 ft | 435 kts | 347° |
| 2026-05-06 18:43 | 61.29563 | 38.39384 | 35948 ft | 427 kts | 339° |
| 2026-05-06 18:43 | 61.35275 | 38.36772 | 35929 ft | 420 kts | 336° |
| 2026-05-06 18:44 | 61.40945 | 38.33981 | 35922 ft | 420 kts | 336° |
| 2026-05-06 18:44 | 61.46616 | 38.31232 | 35929 ft | 422 kts | 337° |
| 2026-05-06 18:45 | 61.52322 | 38.28512 | 35918 ft | 422 kts | 338° |
| 2026-05-06 18:45 | 61.58026 | 38.25822 | 35929 ft | 423 kts | 337° |
| 2026-05-06 18:46 | 61.63749 | 38.23118 | 35914 ft | 424 kts | 337° |
| 2026-05-06 18:46 | 61.69477 | 38.20410 | 35923 ft | 424 kts | 338° |
| 2026-05-06 18:47 | 61.75181 | 38.17711 | 35922 ft | 422 kts | 338° |
| 2026-05-06 18:47 | 61.80903 | 38.14978 | 35915 ft | 422 kts | 338° |
| 2026-05-06 18:48 | 61.86608 | 38.12251 | 35931 ft | 424 kts | 337° |
| 2026-05-06 18:48 | 61.92322 | 38.09507 | 35914 ft | 421 kts | 337° |
| 2026-05-06 18:49 | 61.98013 | 38.06746 | 35893 ft | 422 kts | 338° |
| 2026-05-06 18:49 | 62.03740 | 38.03888 | 35904 ft | 426 kts | 337° |
| 2026-05-06 18:50 | 62.09490 | 38.01009 | 35901 ft | 424 kts | 338° |
| 2026-05-06 18:50 | 62.15245 | 37.98123 | 35918 ft | 427 kts | 337° |
| 2026-05-06 18:51 | 62.20973 | 37.95250 | 35898 ft | 423 kts | 338° |
| 2026-05-06 18:51 | 62.26718 | 37.92349 | 35901 ft | 425 kts | 338° |
| 2026-05-06 18:52 | 62.32462 | 37.89438 | 35915 ft | 427 kts | 338° |
| 2026-05-06 18:52 | 62.38213 | 37.86515 | 35887 ft | 428 kts | 338° |
| 2026-05-06 18:53 | 62.43986 | 37.83568 | 35906 ft | 427 kts | 338° |
| 2026-05-06 18:53 | 62.49767 | 37.80607 | 35897 ft | 431 kts | 338° |
| 2026-05-06 18:54 | 62.55558 | 37.77635 | 35902 ft | 428 kts | 338° |
| 2026-05-06 18:54 | 62.61336 | 37.74661 | 35911 ft | 427 kts | 338° |
| 2026-05-06 18:55 | 62.67091 | 37.71541 | 35874 ft | 427 kts | 336° |
| 2026-05-06 18:55 | 62.72746 | 37.67869 | 35895 ft | 428 kts | 335° |
| 2026-05-06 18:56 | 62.78399 | 37.64046 | 35882 ft | 424 kts | 335° |
| 2026-05-06 18:56 | 62.84035 | 37.60264 | 35893 ft | 428 kts | 335° |
| 2026-05-06 18:57 | 62.89711 | 37.56484 | 35879 ft | 427 kts | 335° |
| 2026-05-06 18:57 | 62.95371 | 37.52732 | 35876 ft | 429 kts | 336° |
| 2026-05-06 18:58 | 63.01079 | 37.48931 | 35872 ft | 431 kts | 335° |
| 2026-05-06 18:58 | 63.06802 | 37.45114 | 35869 ft | 431 kts | 336° |
| 2026-05-06 18:59 | 63.12495 | 37.41309 | 35878 ft | 429 kts | 336° |
| 2026-05-06 18:59 | 63.18166 | 37.37501 | 35872 ft | 428 kts | 336° |
| 2026-05-06 19:00 | 63.23840 | 37.33671 | 35886 ft | 429 kts | 335° |
| 2026-05-06 19:00 | 63.29519 | 37.29778 | 35892 ft | 428 kts | 334° |
| 2026-05-06 19:01 | 63.35167 | 37.25731 | 35900 ft | 430 kts | 334° |
| 2026-05-06 19:01 | 63.40845 | 37.21602 | 35893 ft | 430 kts | 334° |
| 2026-05-06 19:02 | 63.46475 | 37.17349 | 35900 ft | 427 kts | 333° |
| 2026-05-06 19:02 | 63.52063 | 37.12907 | 35909 ft | 429 kts | 333° |
| 2026-05-06 19:03 | 63.57648 | 37.08435 | 35900 ft | 429 kts | 333° |
| 2026-05-06 19:03 | 63.63263 | 37.03941 | 35898 ft | 428 kts | 333° |
| 2026-05-06 19:04 | 63.68869 | 36.99462 | 35905 ft | 431 kts | 333° |
| 2026-05-06 19:04 | 63.74479 | 36.94969 | 35889 ft | 429 kts | 333° |
| 2026-05-06 19:05 | 63.80121 | 36.90431 | 35894 ft | 433 kts | 333° |
| 2026-05-06 19:05 | 63.85745 | 36.85898 | 35895 ft | 431 kts | 333° |
| 2026-05-06 19:06 | 63.91376 | 36.81339 | 35887 ft | 431 kts | 333° |
| 2026-05-06 19:06 | 63.96996 | 36.76774 | 35901 ft | 431 kts | 334° |
| 2026-05-06 19:07 | 64.02609 | 36.72201 | 35910 ft | 432 kts | 334° |
| 2026-05-06 19:07 | 64.08254 | 36.67574 | 35902 ft | 433 kts | 334° |
| 2026-05-06 19:08 | 64.13888 | 36.62944 | 35903 ft | 432 kts | 334° |
| 2026-05-06 19:08 | 64.19528 | 36.58284 | 35903 ft | 435 kts | 334° |
| 2026-05-06 19:09 | 64.25169 | 36.53606 | 35902 ft | 433 kts | 334° |
| 2026-05-06 19:09 | 64.30823 | 36.48894 | 35909 ft | 434 kts | 334° |
| 2026-05-06 19:10 | 64.36465 | 36.44178 | 35901 ft | 433 kts | 334° |
| 2026-05-06 19:10 | 64.42104 | 36.39444 | 35906 ft | 434 kts | 334° |
| 2026-05-06 19:11 | 64.47776 | 36.34664 | 35900 ft | 435 kts | 333° |
| 2026-05-06 19:11 | 64.53452 | 36.29864 | 35900 ft | 435 kts | 334° |
| 2026-05-06 19:12 | 64.59118 | 36.25048 | 35897 ft | 435 kts | 334° |
| 2026-05-06 19:12 | 64.64726 | 36.19912 | 35903 ft | 432 kts | 329° |
| 2026-05-06 19:13 | 64.70087 | 36.13725 | 35904 ft | 432 kts | 327° |
| 2026-05-06 19:13 | 64.75369 | 36.07222 | 35897 ft | 431 kts | 327° |
| 2026-05-06 19:14 | 64.80659 | 36.00696 | 35907 ft | 433 kts | 327° |
| 2026-05-06 19:14 | 64.85960 | 35.94175 | 35903 ft | 433 kts | 327° |
| 2026-05-06 19:15 | 64.91260 | 35.87634 | 35905 ft | 432 kts | 327° |
| 2026-05-06 19:15 | 64.96545 | 35.81094 | 35903 ft | 432 kts | 327° |
| 2026-05-06 19:16 | 65.01844 | 35.74516 | 35904 ft | 433 kts | 327° |
| 2026-05-06 19:16 | 65.07042 | 35.67522 | 35904 ft | 430 kts | 323° |
| 2026-05-06 19:17 | 65.12034 | 35.59829 | 35903 ft | 430 kts | 322° |
| 2026-05-06 19:17 | 65.16989 | 35.52031 | 35906 ft | 430 kts | 322° |
| 2026-05-06 19:18 | 65.21976 | 35.44244 | 35904 ft | 431 kts | 322° |
| 2026-05-06 19:18 | 65.26982 | 35.36497 | 35907 ft | 431 kts | 323° |
| 2026-05-06 19:19 | 65.32006 | 35.28781 | 35903 ft | 431 kts | 322° |
| 2026-05-06 19:19 | 65.37032 | 35.21045 | 35902 ft | 432 kts | 322° |
| 2026-05-06 19:20 | 65.42059 | 35.13276 | 35905 ft | 431 kts | 322° |
| 2026-05-06 19:20 | 65.47084 | 35.05470 | 35902 ft | 431 kts | 322° |
| 2026-05-06 19:21 | 65.52109 | 34.97622 | 35898 ft | 433 kts | 322° |
| 2026-05-06 19:21 | 65.57134 | 34.89738 | 35896 ft | 432 kts | 322° |
| 2026-05-06 19:22 | 65.62147 | 34.81837 | 35891 ft | 433 kts | 322° |
| 2026-05-06 19:22 | 65.67165 | 34.73889 | 35891 ft | 434 kts | 323° |
| 2026-05-06 19:23 | 65.72185 | 34.65903 | 35890 ft | 432 kts | 323° |
| 2026-05-06 19:23 | 65.77194 | 34.57895 | 35894 ft | 433 kts | 323° |
| 2026-05-06 19:24 | 65.82199 | 34.49855 | 35890 ft | 433 kts | 323° |
| 2026-05-06 19:24 | 65.87205 | 34.41774 | 35890 ft | 434 kts | 323° |
| 2026-05-06 19:25 | 65.92233 | 34.33622 | 35878 ft | 435 kts | 322° |
| 2026-05-06 19:25 | 65.97264 | 34.25426 | 35874 ft | 434 kts | 322° |
| 2026-05-06 19:26 | 66.02284 | 34.17211 | 35872 ft | 435 kts | 322° |
| 2026-05-06 19:26 | 66.07262 | 34.08913 | 35874 ft | 434 kts | 321° |
| 2026-05-06 19:27 | 66.12209 | 34.00456 | 35878 ft | 434 kts | 321° |
| 2026-05-06 19:27 | 66.17142 | 33.91959 | 35880 ft | 435 kts | 321° |
| 2026-05-06 19:28 | 66.22084 | 33.83421 | 35887 ft | 436 kts | 321° |
| 2026-05-06 19:28 | 66.27035 | 33.74840 | 35891 ft | 436 kts | 321° |
| 2026-05-06 19:29 | 66.31986 | 33.66229 | 35894 ft | 436 kts | 322° |
| 2026-05-06 19:29 | 66.37112 | 33.58195 | 35899 ft | 440 kts | 329° |
| 2026-05-06 19:30 | 66.42815 | 33.52593 | 35902 ft | 446 kts | 339° |
| 2026-05-06 19:30 | 66.48774 | 33.48343 | 35904 ft | 448 kts | 341° |
| 2026-05-06 19:31 | 66.54765 | 33.44353 | 35904 ft | 448 kts | 341° |
| 2026-05-06 19:31 | 66.63754 | 33.38243 | 35904 ft | 448 kts | 341° |
| 2026-05-06 19:32 | 66.69732 | 33.34065 | 35903 ft | 447 kts | 340° |
| 2026-05-06 19:32 | 66.75690 | 33.29841 | 35905 ft | 447 kts | 340° |
| 2026-05-06 19:33 | 66.81647 | 33.25575 | 35896 ft | 448 kts | 340° |
| 2026-05-06 19:33 | 66.87606 | 33.21280 | 35887 ft | 448 kts | 340° |
| 2026-05-06 19:34 | 66.93566 | 33.16959 | 35874 ft | 449 kts | 340° |
| 2026-05-06 19:34 | 66.99537 | 33.12610 | 35862 ft | 449 kts | 340° |
| 2026-05-06 19:35 | 67.05508 | 33.08238 | 35854 ft | 449 kts | 340° |
| 2026-05-06 19:35 | 67.11474 | 33.03847 | 35856 ft | 448 kts | 340° |
| 2026-05-06 19:36 | 67.17440 | 32.99436 | 35855 ft | 447 kts | 340° |
| 2026-05-06 19:36 | 67.23374 | 32.95028 | 35617 ft | 440 kts | 341° |
| 2026-05-06 19:37 | 67.26280 | 32.92863 | 35235 ft | 436 kts | 340° |
| 2026-05-06 19:37 | 67.29174 | 32.90700 | 34675 ft | 438 kts | 340° |
| 2026-05-06 19:37 | 67.32089 | 32.88510 | 34010 ft | 441 kts | 340° |
| 2026-05-06 19:37 | 67.35028 | 32.86294 | 33400 ft | 442 kts | 340° |
| 2026-05-06 19:38 | 67.37952 | 32.84091 | 32968 ft | 440 kts | 340° |
| 2026-05-06 19:38 | 67.40891 | 32.81900 | 32507 ft | 440 kts | 342° |
| 2026-05-06 19:38 | 67.43826 | 32.80009 | 32284 ft | 432 kts | 345° |
| 2026-05-06 19:38 | 67.46759 | 32.78671 | 31967 ft | 429 kts | 350° |
| 2026-05-06 19:39 | 67.49702 | 32.77990 | 31621 ft | 427 kts | 354° |
| 2026-05-06 19:39 | 67.52639 | 32.77694 | 31281 ft | 424 kts | 355° |
| 2026-05-06 19:39 | 67.55569 | 32.77583 | 30961 ft | 421 kts | 356° |
| 2026-05-06 19:39 | 67.58473 | 32.77544 | 30630 ft | 419 kts | 356° |
| 2026-05-06 19:40 | 67.61354 | 32.77519 | 30296 ft | 415 kts | 357° |
| 2026-05-06 19:40 | 67.64212 | 32.77486 | 29938 ft | 412 kts | 356° |
| 2026-05-06 19:40 | 67.67050 | 32.77438 | 29555 ft | 409 kts | 356° |
| 2026-05-06 19:40 | 67.69865 | 32.77373 | 29201 ft | 405 kts | 356° |
| 2026-05-06 19:41 | 67.72662 | 32.77296 | 28830 ft | 402 kts | 356° |
| 2026-05-06 19:41 | 67.75436 | 32.77209 | 28461 ft | 399 kts | 356° |
| 2026-05-06 19:41 | 67.78193 | 32.77116 | 28068 ft | 397 kts | 356° |
| 2026-05-06 19:41 | 67.80920 | 32.77018 | 27712 ft | 393 kts | 355° |
| 2026-05-06 19:42 | 67.83626 | 32.76918 | 27330 ft | 390 kts | 355° |
| 2026-05-06 19:42 | 67.86311 | 32.76818 | 26949 ft | 387 kts | 355° |
| 2026-05-06 19:42 | 67.88980 | 32.76715 | 26565 ft | 384 kts | 355° |
| 2026-05-06 19:42 | 67.91631 | 32.76612 | 26170 ft | 380 kts | 355° |
| 2026-05-06 19:43 | 67.94252 | 32.76511 | 25745 ft | 377 kts | 355° |
| 2026-05-06 19:43 | 67.96847 | 32.76410 | 25312 ft | 374 kts | 355° |
| 2026-05-06 19:43 | 67.99419 | 32.76315 | 24877 ft | 369 kts | 355° |
| 2026-05-06 19:43 | 68.01960 | 32.76256 | 24408 ft | 365 kts | 355° |
| 2026-05-06 19:44 | 68.04481 | 32.76220 | 23955 ft | 361 kts | 355° |
| 2026-05-06 19:44 | 68.06971 | 32.76193 | 23482 ft | 357 kts | 355° |
| 2026-05-06 19:44 | 68.09429 | 32.76165 | 22997 ft | 354 kts | 355° |
| 2026-05-06 19:44 | 68.11869 | 32.76135 | 22505 ft | 350 kts | 355° |
| 2026-05-06 19:45 | 68.14284 | 32.76103 | 22024 ft | 347 kts | 355° |
| 2026-05-06 19:45 | 68.16673 | 32.76069 | 21531 ft | 344 kts | 355° |
| 2026-05-06 19:45 | 68.19047 | 32.76034 | 21058 ft | 341 kts | 355° |
| 2026-05-06 19:45 | 68.21400 | 32.75999 | 20576 ft | 338 kts | 355° |
| 2026-05-06 19:46 | 68.23733 | 32.75963 | 20073 ft | 336 kts | 355° |
| 2026-05-06 19:46 | 68.26043 | 32.75928 | 19606 ft | 333 kts | 355° |
| 2026-05-06 19:46 | 68.28337 | 32.75892 | 19122 ft | 330 kts | 355° |
| 2026-05-06 19:46 | 68.30619 | 32.75856 | 18644 ft | 327 kts | 355° |
| 2026-05-06 19:47 | 68.32876 | 32.75821 | 18170 ft | 325 kts | 355° |
| 2026-05-06 19:47 | 68.35119 | 32.75785 | 17701 ft | 322 kts | 355° |
| 2026-05-06 19:47 | 68.37337 | 32.75750 | 17255 ft | 319 kts | 355° |
| 2026-05-06 19:47 | 68.39538 | 32.75715 | 16800 ft | 317 kts | 355° |
| 2026-05-06 19:48 | 68.41722 | 32.75681 | 16338 ft | 314 kts | 355° |
| 2026-05-06 19:48 | 68.43889 | 32.75726 | 15897 ft | 312 kts | 357° |
| 2026-05-06 19:48 | 68.46048 | 32.75934 | 15450 ft | 310 kts | 358° |
| 2026-05-06 19:48 | 68.48198 | 32.76205 | 14991 ft | 308 kts | 358° |
| 2026-05-06 19:49 | 68.50325 | 32.76296 | 14554 ft | 304 kts | 354° |
| 2026-05-06 19:49 | 68.52386 | 32.75486 | 14067 ft | 298 kts | 341° |
| 2026-05-06 19:49 | 68.54302 | 32.73517 | 13635 ft | 293 kts | 333° |
| 2026-05-06 19:49 | 68.56129 | 32.71148 | 13170 ft | 291 kts | 331° |
| 2026-05-06 19:50 | 68.57927 | 32.68698 | 12532 ft | 288 kts | 331° |
| 2026-05-06 19:50 | 68.59698 | 32.66297 | 11846 ft | 285 kts | 332° |
| 2026-05-06 19:50 | 68.61451 | 32.63963 | 11311 ft | 276 kts | 332° |
| 2026-05-06 19:50 | 68.63143 | 32.61739 | 10896 ft | 265 kts | 332° |
| 2026-05-06 19:51 | 68.64765 | 32.59617 | 10508 ft | 255 kts | 332° |
| 2026-05-06 19:51 | 68.66340 | 32.57553 | 9970 ft | 252 kts | 333° |
| 2026-05-06 19:51 | 68.67899 | 32.55502 | 9400 ft | 249 kts | 333° |
| 2026-05-06 19:51 | 68.69448 | 32.53462 | 8828 ft | 248 kts | 333° |
| 2026-05-06 19:52 | 68.70987 | 32.51433 | 8296 ft | 245 kts | 333° |
| 2026-05-06 19:52 | 68.72487 | 32.49454 | 7974 ft | 234 kts | 333° |
| 2026-05-06 19:52 | 68.73923 | 32.47559 | 7664 ft | 226 kts | 333° |
| 2026-05-06 19:52 | 68.75352 | 32.45665 | 7388 ft | 237 kts | 333° |
| 2026-05-06 19:53 | 68.76861 | 32.43659 | 7037 ft | 244 kts | 333° |
| 2026-05-06 19:53 | 68.78358 | 32.41457 | 6539 ft | 244 kts | 328° |
| 2026-05-06 19:53 | 68.79790 | 32.38873 | 5790 ft | 250 kts | 325° |
| 2026-05-06 19:53 | 68.81225 | 32.36096 | 4958 ft | 257 kts | 325° |
| 2026-05-06 19:54 | 68.82683 | 32.33316 | 4271 ft | 257 kts | 327° |
| 2026-05-06 19:54 | 68.84268 | 32.31339 | 3986 ft | 245 kts | 346° |
| 2026-05-06 19:54 | 68.85924 | 32.31451 | 3600 ft | 241 kts | 14° |
| 2026-05-06 19:54 | 68.87385 | 32.33553 | 3185 ft | 237 kts | 34° |
| 2026-05-06 19:55 | 68.88553 | 32.36686 | 2758 ft | 234 kts | 48° |
| 2026-05-06 19:55 | 68.89476 | 32.40335 | 2330 ft | 231 kts | 54° |
| 2026-05-06 19:55 | 68.90272 | 32.44108 | 2011 ft | 224 kts | 63° |
| 2026-05-06 19:55 | 68.90650 | 32.48105 | 1958 ft | 207 kts | 88° |
| 2026-05-06 19:56 | 68.90288 | 32.51741 | 1968 ft | 192 kts | 123° |
| 2026-05-06 19:56 | 68.89375 | 32.54233 | 1973 ft | 179 kts | 145° |
| 2026-05-06 19:56 | 68.88348 | 32.56165 | 1976 ft | 179 kts | 144° |
| 2026-05-06 19:56 | 68.87321 | 32.58128 | 1977 ft | 180 kts | 145° |
| 2026-05-06 19:57 | 68.86296 | 32.60045 | 1969 ft | 173 kts | 146° |
| 2026-05-06 19:57 | 68.85323 | 32.61854 | 1813 ft | 167 kts | 146° |
| 2026-05-06 19:57 | 68.84379 | 32.63619 | 1571 ft | 162 kts | 146° |
| 2026-05-06 19:57 | 68.83458 | 32.65333 | 1369 ft | 158 kts | 147° |
| 2026-05-06 19:58 | 68.82554 | 32.67020 | 1107 ft | 157 kts | 147° |
| 2026-05-06 19:58 | 68.81647 | 32.68739 | 854 ft | 159 kts | 146° |
| 2026-05-06 19:58 | 68.80753 | 32.70423 | 645 ft | 153 kts | 148° |
| 2026-05-06 19:58 | 68.79874 | 32.71992 | 459 ft | 150 kts | 147° |
| 2026-05-06 19:59 | 68.79018 | 32.73583 | 259 ft | 146 kts | 147° |
| 2026-05-06 19:59 | 68.78321 | 32.74850 | 261 ft | 84 kts | 147° |
| 2026-05-06 19:59 | 68.77928 | 32.75575 | 260 ft | 69 kts | 148° |
| 2026-05-06 19:59 | 68.77599 | 32.76188 | 260 ft | 49 kts | 146° |
| 2026-05-06 20:00 | 68.77438 | 32.76614 | 267 ft | 18 kts | 94° |
| 2026-05-06 20:00 | 68.77446 | 32.76885 | 269 ft | 13 kts | 84° |
| 2026-05-06 20:00 | 68.77416 | 32.77076 | 271 ft | 10 kts | 142° |
| 2026-05-06 20:00 | 68.77352 | 32.77157 | 273 ft | 9 kts | 185° |
| 2026-05-06 20:01 | 68.77298 | 32.76990 | 274 ft | 12 kts | 249° |
| 2026-05-06 20:01 | 68.77281 | 32.76868 | 273 ft | 0 kts | 251° |